createdAt,value
2018-11-13T00:00:03.303Z,3
2018-11-13T00:05:02.666Z,3
2018-11-13T00:10:03.148Z,0
2018-11-13T00:15:02.575Z,3
2018-11-13T00:20:03.039Z,0
2018-11-13T00:25:02.662Z,0
2018-11-13T00:30:03.227Z,0
2018-11-13T00:35:02.683Z,0
2018-11-13T00:40:03.286Z,0
2018-11-13T00:45:02.748Z,0
2018-11-13T00:50:03.176Z,0
2018-11-13T00:55:05.155Z,0
2018-11-13T01:00:03.081Z,0
2018-11-13T01:05:03.747Z,0
2018-11-13T01:10:03.522Z,0
2018-11-13T01:15:03.402Z,0
2018-11-13T01:20:03.468Z,0
2018-11-13T01:25:02.946Z,0
2018-11-13T01:30:03.457Z,0
2018-11-13T01:35:02.881Z,1
2018-11-13T01:40:03.409Z,0
2018-11-13T01:45:03.016Z,1
2018-11-13T01:50:03.514Z,0
2018-11-13T01:55:02.941Z,0
2018-11-13T02:00:03.653Z,0
2018-11-13T02:05:03.136Z,1
2018-11-13T02:10:02.600Z,0
2018-11-13T02:15:03.053Z,0
2018-11-13T02:20:02.569Z,0
2018-11-13T02:25:03.080Z,0
2018-11-13T02:30:02.669Z,2
2018-11-13T02:35:03.213Z,0
2018-11-13T02:40:02.765Z,3
2018-11-13T02:45:03.202Z,2
2018-11-13T02:50:02.703Z,3
2018-11-13T02:55:03.207Z,2
2018-11-13T03:00:02.670Z,0
2018-11-13T03:05:03.167Z,2
2018-11-13T03:10:02.733Z,3
2018-11-13T03:15:03.225Z,4
2018-11-13T03:20:02.676Z,2
2018-11-13T03:25:03.182Z,3
2018-11-13T03:30:02.717Z,2
2018-11-13T03:35:03.254Z,2
2018-11-13T03:40:02.807Z,3
2018-11-13T03:45:03.257Z,3
2018-11-13T03:50:02.751Z,4
2018-11-13T03:55:03.268Z,7
2018-11-13T04:00:03.053Z,4
2018-11-13T04:05:02.603Z,3
2018-11-13T04:10:03.163Z,3
2018-11-13T04:15:02.718Z,4
2018-11-13T04:20:03.242Z,2
2018-11-13T04:25:03.048Z,2
2018-11-13T04:30:02.648Z,5
2018-11-13T04:35:03.243Z,3
2018-11-13T04:40:02.876Z,3
2018-11-13T04:45:03.487Z,4
2018-11-13T04:50:02.982Z,7
2018-11-13T04:55:03.492Z,4
2018-11-13T05:00:02.891Z,5
2018-11-13T05:05:03.454Z,7
2018-11-13T05:10:03.411Z,5
2018-11-13T05:15:03.119Z,4
2018-11-13T05:20:02.753Z,7
2018-11-13T05:25:03.293Z,3
2018-11-13T05:30:02.842Z,4
2018-11-13T05:35:03.478Z,7
2018-11-13T05:40:03.105Z,4
2018-11-13T05:45:02.623Z,6
2018-11-13T05:50:03.129Z,4
2018-11-13T05:55:02.660Z,8
2018-11-13T06:00:03.178Z,5
2018-11-13T06:05:02.705Z,7
2018-11-13T06:10:03.275Z,6
2018-11-13T06:15:03.080Z,6
2018-11-13T06:20:02.602Z,5
2018-11-13T06:25:03.275Z,6
2018-11-13T06:30:02.775Z,8
2018-11-13T06:35:03.645Z,6
2018-11-13T06:40:03.184Z,9
2018-11-13T06:45:02.684Z,6
2018-11-13T06:50:03.247Z,7
2018-11-13T06:55:02.879Z,9
2018-11-13T07:00:03.449Z,9
2018-11-13T07:05:03.359Z,8
2018-11-13T07:10:03.449Z,7
2018-11-13T07:15:02.973Z,5
2018-11-13T07:20:03.545Z,8
2018-11-13T07:25:02.942Z,9
2018-11-13T07:30:02.617Z,12
2018-11-13T07:35:03.092Z,7
2018-11-13T07:40:02.666Z,7
2018-11-13T07:45:03.110Z,12
2018-11-13T07:50:02.592Z,7
2018-11-13T07:55:03.064Z,10
2018-11-13T08:00:02.667Z,6
2018-11-13T08:05:03.254Z,7
2018-11-13T08:10:02.838Z,7
2018-11-13T08:15:03.455Z,10
2018-11-13T08:20:02.952Z,9
2018-11-13T08:25:03.567Z,10
2018-11-13T08:30:03.129Z,10
2018-11-13T08:35:03.287Z,11
2018-11-13T08:40:03.222Z,9
2018-11-13T08:45:02.700Z,5
2018-11-13T08:50:03.251Z,9
2018-11-13T08:55:02.745Z,8
2018-11-13T09:00:03.295Z,5
2018-11-13T09:05:03.160Z,10
2018-11-13T09:10:02.950Z,9
2018-11-13T09:15:03.439Z,8
2018-11-13T09:20:03.005Z,7
2018-11-13T09:25:03.543Z,10
2018-11-13T09:30:03.670Z,8
2018-11-13T09:35:02.892Z,10
2018-11-13T09:40:03.625Z,11
2018-11-13T09:45:03.647Z,10
2018-11-13T09:50:03.145Z,10
2018-11-13T09:55:02.680Z,5
2018-11-13T10:00:03.825Z,6
2018-11-13T10:05:06.843Z,10
2018-11-13T10:10:02.688Z,12
2018-11-13T10:15:03.240Z,12
2018-11-13T10:20:02.794Z,10
2018-11-13T10:25:03.550Z,7
2018-11-13T10:30:03.096Z,12
2018-11-13T10:35:02.721Z,8
2018-11-13T10:40:03.510Z,7
2018-11-13T10:45:03.177Z,7
2018-11-13T10:50:02.967Z,6
2018-11-13T10:55:02.577Z,6
2018-11-13T11:00:03.100Z,7
2018-11-13T11:05:02.589Z,8
2018-11-13T11:10:03.111Z,12
2018-11-13T11:15:02.668Z,8
2018-11-13T11:20:03.236Z,8
2018-11-13T11:25:03.003Z,10
2018-11-13T11:30:02.725Z,8
2018-11-13T11:35:03.289Z,8
2018-11-13T11:40:02.813Z,10
2018-11-13T11:45:03.319Z,8
2018-11-13T11:50:02.779Z,7
2018-11-13T11:55:03.235Z,9
2018-11-13T12:00:02.725Z,7
2018-11-13T12:05:03.288Z,7
2018-11-13T12:10:02.815Z,9
2018-11-13T12:15:03.262Z,9
2018-11-13T12:20:02.838Z,8
2018-11-13T12:25:03.309Z,10
2018-11-13T12:30:02.764Z,7
2018-11-13T12:35:03.295Z,9
2018-11-13T12:40:02.841Z,8
2018-11-13T12:45:03.323Z,8
2018-11-13T12:50:02.870Z,7
2018-11-13T12:55:03.330Z,6
2018-11-13T13:00:02.850Z,5
2018-11-13T13:05:03.378Z,3
2018-11-13T13:10:02.954Z,8
2018-11-13T13:15:03.729Z,3
2018-11-13T13:20:03.303Z,9
2018-11-13T13:25:02.958Z,6
2018-11-13T13:30:03.471Z,7
2018-11-13T13:35:02.999Z,8
2018-11-13T13:40:02.593Z,10
2018-11-13T13:45:03.390Z,5
2018-11-13T13:50:02.979Z,7
2018-11-13T13:55:02.753Z,8
2018-11-13T14:00:04.715Z,11
2018-11-13T14:05:03.262Z,5
2018-11-13T14:10:02.863Z,7
2018-11-13T14:15:04.457Z,6
2018-11-13T14:20:02.605Z,9
2018-11-13T14:25:03.321Z,4
2018-11-13T14:30:02.846Z,4
2018-11-13T14:35:03.493Z,7
2018-11-13T14:40:03.094Z,7
2018-11-13T14:45:03.106Z,2
2018-11-13T14:50:02.746Z,6
2018-11-13T14:55:03.513Z,4
2018-11-13T15:00:03.075Z,4
2018-11-13T15:05:03.609Z,9
2018-11-13T15:10:03.203Z,7
2018-11-13T15:15:02.991Z,7
2018-11-13T15:20:02.780Z,8
2018-11-13T15:25:03.398Z,7
2018-11-13T15:30:02.960Z,6
2018-11-13T15:35:03.494Z,4
2018-11-13T15:40:03.160Z,4
2018-11-13T15:45:03.078Z,4
2018-11-13T15:50:02.832Z,6
2018-11-13T15:55:03.372Z,6
2018-11-13T16:00:03.121Z,6
2018-11-13T16:05:02.706Z,5
2018-11-13T16:10:03.509Z,7
2018-11-13T16:15:03.490Z,5
2018-11-13T16:20:03.177Z,4
2018-11-13T16:25:02.686Z,7
2018-11-13T16:30:03.474Z,4
2018-11-13T16:35:03.130Z,7
2018-11-13T16:40:02.670Z,2
2018-11-13T16:45:03.290Z,5
2018-11-13T16:50:02.821Z,7
2018-11-13T16:55:03.350Z,5
2018-11-13T17:00:03.221Z,7
2018-11-13T17:05:03.431Z,3
2018-11-13T17:10:03.567Z,7
2018-11-13T17:15:03.441Z,5
2018-11-13T17:20:03.040Z,3
2018-11-13T17:25:02.631Z,3
2018-11-13T17:30:03.536Z,3
2018-11-13T17:35:03.210Z,5
2018-11-13T17:40:02.765Z,5
2018-11-13T17:45:03.268Z,4
2018-11-13T17:50:02.797Z,4
2018-11-13T17:55:03.344Z,7
2018-11-13T18:00:02.931Z,5
2018-11-13T18:05:03.468Z,4
2018-11-13T18:10:03.012Z,4
2018-11-13T18:15:03.633Z,7
2018-11-13T18:20:03.146Z,3
2018-11-13T18:25:02.682Z,3
2018-11-13T18:30:03.306Z,5
2018-11-13T18:35:02.922Z,6
2018-11-13T18:40:02.601Z,3
2018-11-13T18:45:03.543Z,5
2018-11-13T18:50:03.971Z,7
2018-11-13T18:55:02.654Z,5
2018-11-13T19:00:03.196Z,8
2018-11-13T19:05:03.238Z,5
2018-11-13T19:10:03.136Z,7
2018-11-13T19:15:02.937Z,4
2018-11-13T19:20:04.077Z,6
2018-11-13T19:25:03.418Z,4
2018-11-13T19:30:08.518Z,5
2018-11-13T19:35:03.619Z,3
2018-11-13T19:40:03.146Z,3
2018-11-13T19:45:03.743Z,3
2018-11-13T19:50:02.668Z,2
2018-11-13T19:55:02.927Z,5
2018-11-13T20:00:02.769Z,3
2018-11-13T20:05:03.378Z,5
2018-11-13T20:10:03.024Z,3
2018-11-13T20:15:02.602Z,3
2018-11-13T20:20:03.283Z,4
2018-11-13T20:25:02.863Z,4
2018-11-13T20:30:03.330Z,3
2018-11-13T20:35:02.830Z,4
2018-11-13T20:40:03.496Z,4
2018-11-13T20:45:03.059Z,4
2018-11-13T20:50:02.639Z,7
2018-11-13T20:55:03.240Z,5
2018-11-13T21:00:03.124Z,6
2018-11-13T21:05:02.765Z,3
2018-11-13T21:10:03.393Z,3
2018-11-13T21:15:02.948Z,5
2018-11-13T21:20:03.488Z,5
2018-11-13T21:25:02.975Z,3
2018-11-13T21:30:04.045Z,3
2018-11-13T21:35:03.035Z,3
2018-11-13T21:40:02.596Z,3
2018-11-13T21:45:03.051Z,3
2018-11-13T21:50:04.305Z,3
2018-11-13T21:55:03.127Z,5
2018-11-13T22:00:02.672Z,4
2018-11-13T22:05:03.175Z,2
2018-11-13T22:10:02.749Z,3
2018-11-13T22:15:03.582Z,5
2018-11-13T22:20:03.542Z,3
2018-11-13T22:25:03.013Z,3
2018-11-13T22:30:03.486Z,4
2018-11-13T22:35:03.023Z,3
2018-11-13T22:40:02.622Z,5
2018-11-13T22:45:03.362Z,2
2018-11-13T22:50:02.875Z,3
2018-11-13T22:55:03.382Z,4
2018-11-13T23:00:03.119Z,3
2018-11-13T23:05:02.826Z,3
2018-11-13T23:10:03.351Z,4
2018-11-13T23:15:03.144Z,3
2018-11-13T23:20:03.048Z,2
2018-11-13T23:25:02.651Z,3
2018-11-13T23:30:03.164Z,4
2018-11-13T23:35:03.620Z,2
2018-11-13T23:40:03.647Z,2
2018-11-13T23:45:03.190Z,5
2018-11-13T23:50:02.862Z,3
2018-11-13T23:55:03.377Z,3
